Terminal Aerodrome Forecast
Issued by NWS

Home | Current Version | Previous Version | Graphics & Text | Print | Product List | Glossary Off
Versions: 1 2 3 4 5 6 7 8 9 10 11 12 13 14 15 16 17 18

243
FTUS43 KGRB 161453 AAA
TAFAUW
TAF AMD
KAUW 161453Z 1615/1712 33008KT P6SM SCT025 SCT070
      TEMPO 1615/1617 BKN025
     FM161800 31008KT P6SM SCT020 BKN035
     FM162300 29005KT P6SM SCT250
     FM170700 27008KT P6SM BKN100=

USA.gov is the U.S. government's official web portal to all federal, state and local government web resources and services.